sensor_id;sensor_type;location;lat;lon;timestamp;P1;durP1;ratioP1;P2;durP2;ratioP2
50056;SDS011;36875;49.468;11.200;2022-12-29T00:00:49;2.20;;;1.27;;
50056;SDS011;36875;49.468;11.200;2022-12-29T00:03:15;1.75;;;1.20;;
50056;SDS011;36875;49.468;11.200;2022-12-29T00:05:40;1.50;;;1.02;;
50056;SDS011;36875;49.468;11.200;2022-12-29T00:08:06;2.25;;;1.20;;
50056;SDS011;36875;49.468;11.200;2022-12-29T00:10:31;2.20;;;1.25;;
50056;SDS011;36875;49.468;11.200;2022-12-29T00:12:59;3.75;;;1.30;;
50056;SDS011;36875;49.468;11.200;2022-12-29T00:15:43;2.55;;;1.13;;
50056;SDS011;36875;49.468;11.200;2022-12-29T00:18:08;1.95;;;1.17;;
50056;SDS011;36875;49.468;11.200;2022-12-29T00:20:34;1.30;;;0.90;;
50056;SDS011;36875;49.468;11.200;2022-12-29T00:23:18;1.42;;;0.98;;
50056;SDS011;36875;49.468;11.200;2022-12-29T00:26:02;2.15;;;1.20;;
50056;SDS011;36875;49.468;11.200;2022-12-29T00:28:48;1.63;;;1.00;;
50056;SDS011;36875;49.468;11.200;2022-12-29T00:31:33;2.60;;;1.08;;
50056;SDS011;36875;49.468;11.200;2022-12-29T00:34:17;3.25;;;1.02;;
50056;SDS011;36875;49.468;11.200;2022-12-29T00:37:01;1.63;;;1.00;;
50056;SDS011;36875;49.468;11.200;2022-12-29T00:39:27;1.00;;;0.90;;
50056;SDS011;36875;49.468;11.200;2022-12-29T00:42:11;1.70;;;1.00;;
50056;SDS011;36875;49.468;11.200;2022-12-29T00:45:04;2.03;;;1.10;;
50056;SDS011;36875;49.468;11.200;2022-12-29T00:47:30;1.30;;;0.85;;
50056;SDS011;36875;49.468;11.200;2022-12-29T00:49:55;2.65;;;1.05;;
50056;SDS011;36875;49.468;11.200;2022-12-29T00:52:24;2.30;;;0.95;;
50056;SDS011;36875;49.468;11.200;2022-12-29T00:54:49;1.52;;;1.02;;
50056;SDS011;36875;49.468;11.200;2022-12-29T00:57:15;1.73;;;1.05;;
50056;SDS011;36875;49.468;11.200;2022-12-29T00:59:41;2.13;;;1.13;;
50056;SDS011;36875;49.468;11.200;2022-12-29T01:02:09;2.42;;;1.10;;
50056;SDS011;36875;49.468;11.200;2022-12-29T01:04:35;1.38;;;0.90;;
50056;SDS011;36875;49.468;11.200;2022-12-29T01:07:00;1.52;;;1.10;;
50056;SDS011;36875;49.468;11.200;2022-12-29T01:09:26;2.08;;;1.02;;
50056;SDS011;36875;49.468;11.200;2022-12-29T01:12:10;2.22;;;0.85;;
50056;SDS011;36875;49.468;11.200;2022-12-29T01:14:35;1.48;;;0.90;;
50056;SDS011;36875;49.468;11.200;2022-12-29T01:17:01;1.55;;;1.10;;
50056;SDS011;36875;49.468;11.200;2022-12-29T01:19:28;2.25;;;1.00;;
50056;SDS011;36875;49.468;11.200;2022-12-29T01:21:54;2.63;;;1.00;;
50056;SDS011;36875;49.468;11.200;2022-12-29T01:24:20;1.30;;;0.80;;
50056;SDS011;36875;49.468;11.200;2022-12-29T01:26:45;1.45;;;1.05;;
50056;SDS011;36875;49.468;11.200;2022-12-29T01:29:12;1.33;;;0.82;;
50056;SDS011;36875;49.468;11.200;2022-12-29T01:31:37;1.35;;;0.90;;
50056;SDS011;36875;49.468;11.200;2022-12-29T01:34:03;1.73;;;0.95;;
50056;SDS011;36875;49.468;11.200;2022-12-29T01:36:30;2.30;;;1.10;;
50056;SDS011;36875;49.468;11.200;2022-12-29T01:38:56;1.15;;;0.85;;
50056;SDS011;36875;49.468;11.200;2022-12-29T01:41:22;2.83;;;1.17;;
50056;SDS011;36875;49.468;11.200;2022-12-29T01:43:48;1.00;;;0.80;;
50056;SDS011;36875;49.468;11.200;2022-12-29T01:46:18;1.13;;;0.80;;
50056;SDS011;36875;49.468;11.200;2022-12-29T01:48:49;1.38;;;0.80;;
50056;SDS011;36875;49.468;11.200;2022-12-29T01:51:17;0.95;;;0.80;;
50056;SDS011;36875;49.468;11.200;2022-12-29T01:53:45;1.77;;;1.00;;
50056;SDS011;36875;49.468;11.200;2022-12-29T01:56:11;1.33;;;0.90;;
50056;SDS011;36875;49.468;11.200;2022-12-29T01:58:39;1.20;;;0.90;;
50056;SDS011;36875;49.468;11.200;2022-12-29T02:01:09;1.30;;;0.90;;
50056;SDS011;36875;49.468;11.200;2022-12-29T02:03:35;1.15;;;0.82;;
50056;SDS011;36875;49.468;11.200;2022-12-29T02:06:02;1.38;;;0.75;;
50056;SDS011;36875;49.468;11.200;2022-12-29T02:08:33;0.90;;;0.70;;
50056;SDS011;36875;49.468;11.200;2022-12-29T02:11:00;1.40;;;0.80;;
50056;SDS011;36875;49.468;11.200;2022-12-29T02:13:27;1.30;;;0.80;;
50056;SDS011;36875;49.468;11.200;2022-12-29T02:15:56;1.35;;;0.80;;
50056;SDS011;36875;49.468;11.200;2022-12-29T02:18:33;1.20;;;0.85;;
50056;SDS011;36875;49.468;11.200;2022-12-29T02:21:17;2.35;;;0.77;;
50056;SDS011;36875;49.468;11.200;2022-12-29T02:27:12;0.60;;;0.60;;
50056;SDS011;36875;49.468;11.200;2022-12-29T02:30:04;1.52;;;0.80;;
50056;SDS011;36875;49.468;11.200;2022-12-29T02:32:38;2.10;;;0.93;;
50056;SDS011;36875;49.468;11.200;2022-12-29T02:35:13;0.88;;;0.65;;
50056;SDS011;36875;49.468;11.200;2022-12-29T02:37:49;0.60;;;0.60;;
50056;SDS011;36875;49.468;11.200;2022-12-29T02:40:24;1.20;;;0.70;;
50056;SDS011;36875;49.468;11.200;2022-12-29T02:45:26;1.48;;;0.80;;
50056;SDS011;36875;49.468;11.200;2022-12-29T02:47:59;1.00;;;0.82;;
50056;SDS011;36875;49.468;11.200;2022-12-29T02:50:33;1.55;;;0.75;;
50056;SDS011;36875;49.468;11.200;2022-12-29T02:53:04;0.93;;;0.70;;
50056;SDS011;36875;49.468;11.200;2022-12-29T02:55:32;0.80;;;0.60;;
50056;SDS011;36875;49.468;11.200;2022-12-29T02:58:06;0.95;;;0.70;;
50056;SDS011;36875;49.468;11.200;2022-12-29T03:00:43;0.95;;;0.70;;
50056;SDS011;36875;49.468;11.200;2022-12-29T03:03:29;1.58;;;0.85;;
50056;SDS011;36875;49.468;11.200;2022-12-29T03:06:15;0.75;;;0.68;;
50056;SDS011;36875;49.468;11.200;2022-12-29T03:08:55;2.65;;;0.90;;
50056;SDS011;36875;49.468;11.200;2022-12-29T03:11:27;1.50;;;0.50;;
50056;SDS011;36875;49.468;11.200;2022-12-29T03:17:07;0.75;;;0.60;;
50056;SDS011;36875;49.468;11.200;2022-12-29T03:19:37;1.00;;;0.57;;
50056;SDS011;36875;49.468;11.200;2022-12-29T03:22:12;1.15;;;0.95;;
50056;SDS011;36875;49.468;11.200;2022-12-29T03:24:52;1.00;;;0.60;;
50056;SDS011;36875;49.468;11.200;2022-12-29T03:27:21;1.33;;;0.90;;
50056;SDS011;36875;49.468;11.200;2022-12-29T03:29:51;0.95;;;0.70;;
50056;SDS011;36875;49.468;11.200;2022-12-29T03:32:20;0.70;;;0.70;;
50056;SDS011;36875;49.468;11.200;2022-12-29T03:34:49;3.25;;;0.55;;
50056;SDS011;36875;49.468;11.200;2022-12-29T03:37:17;0.82;;;0.70;;
50056;SDS011;36875;49.468;11.200;2022-12-29T03:39:45;1.00;;;0.60;;
50056;SDS011;36875;49.468;11.200;2022-12-29T03:42:12;1.02;;;0.77;;
50056;SDS011;36875;49.468;11.200;2022-12-29T03:44:43;0.47;;;0.47;;
50056;SDS011;36875;49.468;11.200;2022-12-29T03:47:09;1.52;;;0.70;;
50056;SDS011;36875;49.468;11.200;2022-12-29T03:49:36;1.20;;;0.82;;
50056;SDS011;36875;49.468;11.200;2022-12-29T03:52:03;1.30;;;0.70;;
50056;SDS011;36875;49.468;11.200;2022-12-29T03:54:29;1.23;;;0.80;;
50056;SDS011;36875;49.468;11.200;2022-12-29T03:56:55;0.95;;;0.60;;
50056;SDS011;36875;49.468;11.200;2022-12-29T03:59:20;0.55;;;0.50;;
50056;SDS011;36875;49.468;11.200;2022-12-29T04:01:46;0.52;;;0.50;;
50056;SDS011;36875;49.468;11.200;2022-12-29T04:04:12;0.98;;;0.70;;
50056;SDS011;36875;49.468;11.200;2022-12-29T04:06:37;0.75;;;0.75;;
50056;SDS011;36875;49.468;11.200;2022-12-29T04:09:04;1.35;;;0.95;;
50056;SDS011;36875;49.468;11.200;2022-12-29T04:11:30;0.95;;;0.65;;
50056;SDS011;36875;49.468;11.200;2022-12-29T04:13:55;1.15;;;0.70;;
50056;SDS011;36875;49.468;11.200;2022-12-29T04:16:21;1.73;;;0.80;;
50056;SDS011;36875;49.468;11.200;2022-12-29T04:18:46;0.82;;;0.60;;
50056;SDS011;36875;49.468;11.200;2022-12-29T04:21:12;1.10;;;0.60;;
50056;SDS011;36875;49.468;11.200;2022-12-29T04:23:37;1.25;;;0.60;;
50056;SDS011;36875;49.468;11.200;2022-12-29T04:26:05;0.55;;;0.55;;
50056;SDS011;36875;49.468;11.200;2022-12-29T04:31:00;1.70;;;0.80;;
50056;SDS011;36875;49.468;11.200;2022-12-29T04:33:25;1.05;;;0.77;;
50056;SDS011;36875;49.468;11.200;2022-12-29T04:35:51;1.00;;;0.70;;
50056;SDS011;36875;49.468;11.200;2022-12-29T04:38:19;0.75;;;0.50;;
50056;SDS011;36875;49.468;11.200;2022-12-29T04:40:45;0.85;;;0.60;;
50056;SDS011;36875;49.468;11.200;2022-12-29T04:43:12;1.65;;;0.85;;
50056;SDS011;36875;49.468;11.200;2022-12-29T04:45:38;0.68;;;0.60;;
50056;SDS011;36875;49.468;11.200;2022-12-29T04:48:04;1.08;;;0.52;;
50056;SDS011;36875;49.468;11.200;2022-12-29T04:50:30;0.57;;;0.43;;
50056;SDS011;36875;49.468;11.200;2022-12-29T04:52:56;0.60;;;0.55;;
50056;SDS011;36875;49.468;11.200;2022-12-29T04:55:21;1.13;;;0.60;;
50056;SDS011;36875;49.468;11.200;2022-12-29T04:57:47;0.68;;;0.55;;
50056;SDS011;36875;49.468;11.200;2022-12-29T05:00:14;0.82;;;0.60;;
50056;SDS011;36875;49.468;11.200;2022-12-29T05:02:39;1.17;;;0.80;;
50056;SDS011;36875;49.468;11.200;2022-12-29T05:05:06;0.98;;;0.60;;
50056;SDS011;36875;49.468;11.200;2022-12-29T05:07:32;1.27;;;0.60;;
50056;SDS011;36875;49.468;11.200;2022-12-29T05:09:58;1.05;;;0.63;;
50056;SDS011;36875;49.468;11.200;2022-12-29T05:12:23;0.52;;;0.52;;
50056;SDS011;36875;49.468;11.200;2022-12-29T05:14:49;0.77;;;0.70;;
50056;SDS011;36875;49.468;11.200;2022-12-29T05:17:19;0.98;;;0.73;;
50056;SDS011;36875;49.468;11.200;2022-12-29T05:19:44;1.20;;;0.80;;
50056;SDS011;36875;49.468;11.200;2022-12-29T05:22:10;1.25;;;0.70;;
50056;SDS011;36875;49.468;11.200;2022-12-29T05:24:35;0.60;;;0.60;;
50056;SDS011;36875;49.468;11.200;2022-12-29T05:27:01;0.40;;;0.40;;
50056;SDS011;36875;49.468;11.200;2022-12-29T05:29:26;0.95;;;0.50;;
50056;SDS011;36875;49.468;11.200;2022-12-29T05:31:52;0.88;;;0.68;;
50056;SDS011;36875;49.468;11.200;2022-12-29T05:34:18;0.55;;;0.55;;
50056;SDS011;36875;49.468;11.200;2022-12-29T05:36:44;1.33;;;0.60;;
50056;SDS011;36875;49.468;11.200;2022-12-29T05:39:09;1.25;;;0.65;;
50056;SDS011;36875;49.468;11.200;2022-12-29T05:41:35;0.73;;;0.55;;
50056;SDS011;36875;49.468;11.200;2022-12-29T05:44:00;0.80;;;0.50;;
50056;SDS011;36875;49.468;11.200;2022-12-29T05:46:26;1.13;;;0.60;;
50056;SDS011;36875;49.468;11.200;2022-12-29T05:48:51;0.95;;;0.60;;
50056;SDS011;36875;49.468;11.200;2022-12-29T05:51:18;1.10;;;0.60;;
50056;SDS011;36875;49.468;11.200;2022-12-29T05:53:44;0.40;;;0.40;;
50056;SDS011;36875;49.468;11.200;2022-12-29T05:56:09;0.90;;;0.63;;
50056;SDS011;36875;49.468;11.200;2022-12-29T05:58:35;1.58;;;0.55;;
50056;SDS011;36875;49.468;11.200;2022-12-29T06:01:00;1.13;;;0.70;;
50056;SDS011;36875;49.468;11.200;2022-12-29T06:03:26;0.45;;;0.45;;
50056;SDS011;36875;49.468;11.200;2022-12-29T06:05:51;0.75;;;0.50;;
50056;SDS011;36875;49.468;11.200;2022-12-29T06:08:18;0.70;;;0.50;;
50056;SDS011;36875;49.468;11.200;2022-12-29T06:10:44;1.00;;;0.63;;
50056;SDS011;36875;49.468;11.200;2022-12-29T06:13:09;0.90;;;0.60;;
50056;SDS011;36875;49.468;11.200;2022-12-29T06:15:35;0.70;;;0.60;;
50056;SDS011;36875;49.468;11.200;2022-12-29T06:18:00;0.57;;;0.52;;
50056;SDS011;36875;49.468;11.200;2022-12-29T06:20:26;1.10;;;0.60;;
50056;SDS011;36875;49.468;11.200;2022-12-29T06:22:52;0.77;;;0.50;;
50056;SDS011;36875;49.468;11.200;2022-12-29T06:25:19;0.85;;;0.60;;
50056;SDS011;36875;49.468;11.200;2022-12-29T06:27:44;0.75;;;0.50;;
50056;SDS011;36875;49.468;11.200;2022-12-29T06:30:10;0.50;;;0.50;;
50056;SDS011;36875;49.468;11.200;2022-12-29T06:32:37;0.80;;;0.60;;
50056;SDS011;36875;49.468;11.200;2022-12-29T06:35:03;0.98;;;0.60;;
50056;SDS011;36875;49.468;11.200;2022-12-29T06:37:29;0.75;;;0.60;;
50056;SDS011;36875;49.468;11.200;2022-12-29T06:39:55;0.63;;;0.50;;
50056;SDS011;36875;49.468;11.200;2022-12-29T06:42:22;0.55;;;0.55;;
50056;SDS011;36875;49.468;11.200;2022-12-29T06:44:47;0.93;;;0.52;;
50056;SDS011;36875;49.468;11.200;2022-12-29T06:47:13;0.85;;;0.40;;
50056;SDS011;36875;49.468;11.200;2022-12-29T06:49:38;0.70;;;0.60;;
50056;SDS011;36875;49.468;11.200;2022-12-29T06:52:04;0.63;;;0.50;;
50056;SDS011;36875;49.468;11.200;2022-12-29T06:54:29;1.05;;;0.60;;
50056;SDS011;36875;49.468;11.200;2022-12-29T06:56:55;0.90;;;0.60;;
50056;SDS011;36875;49.468;11.200;2022-12-29T06:59:22;0.80;;;0.50;;
50056;SDS011;36875;49.468;11.200;2022-12-29T07:01:47;0.82;;;0.63;;
50056;SDS011;36875;49.468;11.200;2022-12-29T07:04:13;0.75;;;0.57;;
50056;SDS011;36875;49.468;11.200;2022-12-29T07:06:38;0.80;;;0.55;;
50056;SDS011;36875;49.468;11.200;2022-12-29T07:09:05;0.93;;;0.65;;
50056;SDS011;36875;49.468;11.200;2022-12-29T07:11:31;1.02;;;0.50;;
50056;SDS011;36875;49.468;11.200;2022-12-29T07:13:57;1.08;;;0.70;;
50056;SDS011;36875;49.468;11.200;2022-12-29T07:16:23;0.65;;;0.43;;
50056;SDS011;36875;49.468;11.200;2022-12-29T07:18:49;0.95;;;0.40;;
50056;SDS011;36875;49.468;11.200;2022-12-29T07:21:15;0.80;;;0.52;;
50056;SDS011;36875;49.468;11.200;2022-12-29T07:23:40;2.13;;;0.80;;
50056;SDS011;36875;49.468;11.200;2022-12-29T07:26:06;0.90;;;0.60;;
50056;SDS011;36875;49.468;11.200;2022-12-29T07:28:34;1.08;;;0.50;;
50056;SDS011;36875;49.468;11.200;2022-12-29T07:31:01;1.10;;;0.70;;
50056;SDS011;36875;49.468;11.200;2022-12-29T07:33:29;0.90;;;0.60;;
50056;SDS011;36875;49.468;11.200;2022-12-29T07:35:54;1.10;;;0.50;;
50056;SDS011;36875;49.468;11.200;2022-12-29T07:38:20;0.70;;;0.60;;
50056;SDS011;36875;49.468;11.200;2022-12-29T07:40:45;0.73;;;0.60;;
50056;SDS011;36875;49.468;11.200;2022-12-29T07:43:11;1.55;;;0.60;;
50056;SDS011;36875;49.468;11.200;2022-12-29T07:45:37;1.77;;;0.50;;
50056;SDS011;36875;49.468;11.200;2022-12-29T07:48:02;0.75;;;0.60;;
50056;SDS011;36875;49.468;11.200;2022-12-29T07:50:30;1.27;;;0.60;;
50056;SDS011;36875;49.468;11.200;2022-12-29T07:52:55;1.40;;;0.65;;
50056;SDS011;36875;49.468;11.200;2022-12-29T07:55:20;1.90;;;0.90;;
50056;SDS011;36875;49.468;11.200;2022-12-29T07:57:46;1.92;;;0.75;;
50056;SDS011;36875;49.468;11.200;2022-12-29T08:00:12;3.97;;;0.75;;
50056;SDS011;36875;49.468;11.200;2022-12-29T08:02:38;0.93;;;0.60;;
50056;SDS011;36875;49.468;11.200;2022-12-29T08:05:04;2.88;;;0.80;;
50056;SDS011;36875;49.468;11.200;2022-12-29T08:07:31;2.08;;;1.08;;
50056;SDS011;36875;49.468;11.200;2022-12-29T08:09:57;1.75;;;0.80;;
50056;SDS011;36875;49.468;11.200;2022-12-29T08:12:23;3.75;;;0.80;;
50056;SDS011;36875;49.468;11.200;2022-12-29T08:14:48;2.25;;;0.75;;
50056;SDS011;36875;49.468;11.200;2022-12-29T08:17:13;1.70;;;0.80;;
50056;SDS011;36875;49.468;11.200;2022-12-29T08:19:39;3.42;;;0.88;;
50056;SDS011;36875;49.468;11.200;2022-12-29T08:22:05;4.18;;;0.90;;
50056;SDS011;36875;49.468;11.200;2022-12-29T08:24:32;4.22;;;1.38;;
50056;SDS011;36875;49.468;11.200;2022-12-29T08:26:57;8.63;;;2.45;;
50056;SDS011;36875;49.468;11.200;2022-12-29T08:29:23;25.15;;;5.78;;
50056;SDS011;36875;49.468;11.200;2022-12-29T08:31:48;28.35;;;7.63;;
50056;SDS011;36875;49.468;11.200;2022-12-29T08:34:14;144.73;;;68.70;;
50056;SDS011;36875;49.468;11.200;2022-12-29T08:36:39;57.25;;;20.70;;
50056;SDS011;36875;49.468;11.200;2022-12-29T08:39:05;66.95;;;22.73;;
50056;SDS011;36875;49.468;11.200;2022-12-29T08:41:31;54.88;;;19.48;;
50056;SDS011;36875;49.468;11.200;2022-12-29T08:43:57;48.17;;;15.32;;
50056;SDS011;36875;49.468;11.200;2022-12-29T08:46:22;41.72;;;12.80;;
50056;SDS011;36875;49.468;11.200;2022-12-29T08:48:48;49.50;;;12.40;;
50056;SDS011;36875;49.468;11.200;2022-12-29T08:51:14;35.70;;;11.52;;
50056;SDS011;36875;49.468;11.200;2022-12-29T08:53:39;43.50;;;11.15;;
50056;SDS011;36875;49.468;11.200;2022-12-29T08:56:05;39.78;;;10.70;;
50056;SDS011;36875;49.468;11.200;2022-12-29T08:58:35;25.15;;;7.60;;
50056;SDS011;36875;49.468;11.200;2022-12-29T09:01:00;23.92;;;5.82;;
50056;SDS011;36875;49.468;11.200;2022-12-29T09:03:26;18.00;;;5.63;;
50056;SDS011;36875;49.468;11.200;2022-12-29T09:05:52;20.33;;;5.85;;
50056;SDS011;36875;49.468;11.200;2022-12-29T09:08:19;20.77;;;6.15;;
50056;SDS011;36875;49.468;11.200;2022-12-29T09:10:44;23.60;;;6.30;;
50056;SDS011;36875;49.468;11.200;2022-12-29T09:13:10;23.08;;;7.10;;
50056;SDS011;36875;49.468;11.200;2022-12-29T09:15:37;22.65;;;6.43;;
50056;SDS011;36875;49.468;11.200;2022-12-29T09:18:03;25.80;;;6.72;;
50056;SDS011;36875;49.468;11.200;2022-12-29T09:20:29;21.83;;;6.35;;
50056;SDS011;36875;49.468;11.200;2022-12-29T09:22:55;25.88;;;6.80;;
50056;SDS011;36875;49.468;11.200;2022-12-29T09:25:20;27.77;;;7.03;;
50056;SDS011;36875;49.468;11.200;2022-12-29T09:27:49;25.80;;;6.47;;
50056;SDS011;36875;49.468;11.200;2022-12-29T09:30:15;19.80;;;5.82;;
50056;SDS011;36875;49.468;11.200;2022-12-29T09:32:42;22.92;;;6.57;;
50056;SDS011;36875;49.468;11.200;2022-12-29T09:35:07;23.88;;;6.50;;
50056;SDS011;36875;49.468;11.200;2022-12-29T09:37:33;20.70;;;5.95;;
50056;SDS011;36875;49.468;11.200;2022-12-29T09:39:58;20.25;;;5.65;;
50056;SDS011;36875;49.468;11.200;2022-12-29T09:42:25;20.52;;;6.40;;
50056;SDS011;36875;49.468;11.200;2022-12-29T09:44:56;26.38;;;5.50;;
50056;SDS011;36875;49.468;11.200;2022-12-29T09:47:29;21.67;;;4.97;;
50056;SDS011;36875;49.468;11.200;2022-12-29T09:49:58;21.17;;;5.28;;
50056;SDS011;36875;49.468;11.200;2022-12-29T09:52:28;18.13;;;5.85;;
50056;SDS011;36875;49.468;11.200;2022-12-29T09:54:57;21.27;;;5.32;;
50056;SDS011;36875;49.468;11.200;2022-12-29T09:57:27;17.95;;;5.25;;
50056;SDS011;36875;49.468;11.200;2022-12-29T09:59:58;22.50;;;5.32;;
50056;SDS011;36875;49.468;11.200;2022-12-29T10:02:31;19.60;;;4.82;;
50056;SDS011;36875;49.468;11.200;2022-12-29T10:05:03;20.85;;;5.00;;
50056;SDS011;36875;49.468;11.200;2022-12-29T10:07:36;22.02;;;4.50;;
50056;SDS011;36875;49.468;11.200;2022-12-29T10:10:17;14.88;;;4.22;;
50056;SDS011;36875;49.468;11.200;2022-12-29T10:12:57;15.50;;;4.45;;
50056;SDS011;36875;49.468;11.200;2022-12-29T10:15:31;15.35;;;4.05;;
50056;SDS011;36875;49.468;11.200;2022-12-29T10:18:10;15.07;;;4.57;;
50056;SDS011;36875;49.468;11.200;2022-12-29T10:21:00;16.60;;;4.40;;
50056;SDS011;36875;49.468;11.200;2022-12-29T10:23:32;12.73;;;4.18;;
50056;SDS011;36875;49.468;11.200;2022-12-29T10:26:00;14.55;;;3.90;;
50056;SDS011;36875;49.468;11.200;2022-12-29T10:28:33;13.38;;;3.70;;
50056;SDS011;36875;49.468;11.200;2022-12-29T10:33:32;10.73;;;3.47;;
50056;SDS011;36875;49.468;11.200;2022-12-29T10:38:39;11.02;;;3.00;;
50056;SDS011;36875;49.468;11.200;2022-12-29T10:41:08;11.75;;;3.30;;
50056;SDS011;36875;49.468;11.200;2022-12-29T10:43:41;9.25;;;2.70;;
50056;SDS011;36875;49.468;11.200;2022-12-29T10:46:12;7.97;;;2.50;;
50056;SDS011;36875;49.468;11.200;2022-12-29T10:48:41;10.48;;;2.83;;
50056;SDS011;36875;49.468;11.200;2022-12-29T10:51:13;10.63;;;3.22;;
50056;SDS011;36875;49.468;11.200;2022-12-29T10:53:47;11.95;;;3.50;;
50056;SDS011;36875;49.468;11.200;2022-12-29T10:56:18;11.27;;;3.28;;
50056;SDS011;36875;49.468;11.200;2022-12-29T10:58:57;11.45;;;2.90;;
50056;SDS011;36875;49.468;11.200;2022-12-29T11:01:29;13.35;;;3.50;;
50056;SDS011;36875;49.468;11.200;2022-12-29T11:04:03;14.82;;;2.70;;
50056;SDS011;36875;49.468;11.200;2022-12-29T11:06:32;9.75;;;2.78;;
50056;SDS011;36875;49.468;11.200;2022-12-29T11:09:00;9.23;;;2.90;;
50056;SDS011;36875;49.468;11.200;2022-12-29T11:11:33;9.13;;;2.50;;
50056;SDS011;36875;49.468;11.200;2022-12-29T11:14:02;9.98;;;2.67;;
50056;SDS011;36875;49.468;11.200;2022-12-29T11:16:35;11.07;;;2.85;;
50056;SDS011;36875;49.468;11.200;2022-12-29T11:19:01;11.77;;;2.45;;
50056;SDS011;36875;49.468;11.200;2022-12-29T11:21:30;7.57;;;2.55;;
50056;SDS011;36875;49.468;11.200;2022-12-29T11:23:59;11.80;;;2.92;;
50056;SDS011;36875;49.468;11.200;2022-12-29T11:26:26;10.60;;;2.70;;
50056;SDS011;36875;49.468;11.200;2022-12-29T11:29:16;7.25;;;2.08;;
50056;SDS011;36875;49.468;11.200;2022-12-29T11:31:47;7.30;;;2.58;;
50056;SDS011;36875;49.468;11.200;2022-12-29T11:34:16;10.07;;;3.25;;
50056;SDS011;36875;49.468;11.200;2022-12-29T11:36:45;5.93;;;2.35;;
50056;SDS011;36875;49.468;11.200;2022-12-29T11:39:21;7.07;;;2.22;;
50056;SDS011;36875;49.468;11.200;2022-12-29T11:41:51;8.57;;;2.60;;
50056;SDS011;36875;49.468;11.200;2022-12-29T11:44:18;7.07;;;2.10;;
50056;SDS011;36875;49.468;11.200;2022-12-29T11:46:45;7.93;;;3.03;;
50056;SDS011;36875;49.468;11.200;2022-12-29T11:49:13;7.82;;;2.47;;
50056;SDS011;36875;49.468;11.200;2022-12-29T11:51:46;7.38;;;2.65;;
50056;SDS011;36875;49.468;11.200;2022-12-29T11:54:15;7.15;;;2.33;;
50056;SDS011;36875;49.468;11.200;2022-12-29T11:56:44;8.43;;;2.22;;
50056;SDS011;36875;49.468;11.200;2022-12-29T11:59:24;8.70;;;2.20;;
50056;SDS011;36875;49.468;11.200;2022-12-29T12:02:03;6.20;;;2.28;;
50056;SDS011;36875;49.468;11.200;2022-12-29T12:04:51;8.38;;;2.25;;
50056;SDS011;36875;49.468;11.200;2022-12-29T12:07:30;5.55;;;2.20;;
50056;SDS011;36875;49.468;11.200;2022-12-29T12:10:04;6.93;;;1.70;;
50056;SDS011;36875;49.468;11.200;2022-12-29T12:12:33;6.55;;;2.22;;
50056;SDS011;36875;49.468;11.200;2022-12-29T12:15:03;11.30;;;2.60;;
50056;SDS011;36875;49.468;11.200;2022-12-29T12:17:29;6.97;;;2.10;;
50056;SDS011;36875;49.468;11.200;2022-12-29T12:20:05;5.82;;;2.35;;
50056;SDS011;36875;49.468;11.200;2022-12-29T12:22:45;6.35;;;2.20;;
50056;SDS011;36875;49.468;11.200;2022-12-29T12:25:20;5.95;;;2.20;;
50056;SDS011;36875;49.468;11.200;2022-12-29T12:27:48;6.97;;;2.10;;
50056;SDS011;36875;49.468;11.200;2022-12-29T12:30:19;5.90;;;1.60;;
50056;SDS011;36875;49.468;11.200;2022-12-29T12:32:46;7.05;;;2.00;;
50056;SDS011;36875;49.468;11.200;2022-12-29T12:35:24;5.47;;;1.90;;
50056;SDS011;36875;49.468;11.200;2022-12-29T12:38:12;7.75;;;2.30;;
50056;SDS011;36875;49.468;11.200;2022-12-29T12:43:39;7.97;;;2.00;;
50056;SDS011;36875;49.468;11.200;2022-12-29T12:46:32;5.25;;;1.98;;
50056;SDS011;36875;49.468;11.200;2022-12-29T12:49:15;6.53;;;2.17;;
50056;SDS011;36875;49.468;11.200;2022-12-29T12:52:00;5.93;;;2.00;;
50056;SDS011;36875;49.468;11.200;2022-12-29T12:54:38;10.70;;;2.25;;
50056;SDS011;36875;49.468;11.200;2022-12-29T12:57:17;5.63;;;2.03;;
50056;SDS011;36875;49.468;11.200;2022-12-29T12:59:56;5.07;;;2.00;;
50056;SDS011;36875;49.468;11.200;2022-12-29T13:02:29;5.22;;;2.10;;
50056;SDS011;36875;49.468;11.200;2022-12-29T13:05:06;6.00;;;2.10;;
50056;SDS011;36875;49.468;11.200;2022-12-29T13:07:44;7.78;;;2.22;;
50056;SDS011;36875;49.468;11.200;2022-12-29T13:10:21;6.53;;;2.28;;
50056;SDS011;36875;49.468;11.200;2022-12-29T13:12:55;15.90;;;3.03;;
50056;SDS011;36875;49.468;11.200;2022-12-29T13:15:35;6.85;;;2.50;;
50056;SDS011;36875;49.468;11.200;2022-12-29T13:18:11;7.15;;;2.25;;
50056;SDS011;36875;49.468;11.200;2022-12-29T13:20:44;13.10;;;2.72;;
50056;SDS011;36875;49.468;11.200;2022-12-29T13:23:16;9.68;;;2.20;;
50056;SDS011;36875;49.468;11.200;2022-12-29T13:25:51;6.15;;;1.98;;
50056;SDS011;36875;49.468;11.200;2022-12-29T13:28:25;14.30;;;3.78;;
50056;SDS011;36875;49.468;11.200;2022-12-29T13:30:56;11.05;;;2.67;;
50056;SDS011;36875;49.468;11.200;2022-12-29T13:33:32;7.63;;;2.17;;
50056;SDS011;36875;49.468;11.200;2022-12-29T13:36:03;12.93;;;3.05;;
50056;SDS011;36875;49.468;11.200;2022-12-29T13:38:33;7.72;;;2.65;;
50056;SDS011;36875;49.468;11.200;2022-12-29T13:41:05;7.90;;;2.70;;
50056;SDS011;36875;49.468;11.200;2022-12-29T13:46:02;5.30;;;1.80;;
50056;SDS011;36875;49.468;11.200;2022-12-29T13:48:37;7.18;;;1.80;;
50056;SDS011;36875;49.468;11.200;2022-12-29T13:51:07;5.55;;;1.90;;
50056;SDS011;36875;49.468;11.200;2022-12-29T13:53:36;9.57;;;1.90;;
50056;SDS011;36875;49.468;11.200;2022-12-29T13:56:10;7.72;;;2.10;;
50056;SDS011;36875;49.468;11.200;2022-12-29T13:58:41;25.45;;;20.40;;
50056;SDS011;36875;49.468;11.200;2022-12-29T14:01:12;10.60;;;5.78;;
50056;SDS011;36875;49.468;11.200;2022-12-29T14:03:44;14.80;;;6.43;;
50056;SDS011;36875;49.468;11.200;2022-12-29T14:06:15;10.57;;;3.95;;
50056;SDS011;36875;49.468;11.200;2022-12-29T14:08:44;10.57;;;3.83;;
50056;SDS011;36875;49.468;11.200;2022-12-29T14:11:13;9.68;;;3.78;;
50056;SDS011;36875;49.468;11.200;2022-12-29T14:13:41;7.05;;;3.45;;
50056;SDS011;36875;49.468;11.200;2022-12-29T14:16:10;7.75;;;3.58;;
50056;SDS011;36875;49.468;11.200;2022-12-29T14:18:50;5.72;;;3.05;;
50056;SDS011;36875;49.468;11.200;2022-12-29T14:21:17;21.65;;;14.45;;
50056;SDS011;36875;49.468;11.200;2022-12-29T14:23:48;14.75;;;7.45;;
50056;SDS011;36875;49.468;11.200;2022-12-29T14:26:17;16.30;;;6.65;;
50056;SDS011;36875;49.468;11.200;2022-12-29T14:29:00;14.95;;;6.85;;
50056;SDS011;36875;49.468;11.200;2022-12-29T14:31:41;16.73;;;7.45;;
50056;SDS011;36875;49.468;11.200;2022-12-29T14:37:03;14.55;;;6.13;;
50056;SDS011;36875;49.468;11.200;2022-12-29T14:39:33;12.20;;;5.32;;
50056;SDS011;36875;49.468;11.200;2022-12-29T14:42:04;12.77;;;5.45;;
50056;SDS011;36875;49.468;11.200;2022-12-29T14:44:45;9.80;;;4.95;;
50056;SDS011;36875;49.468;11.200;2022-12-29T14:47:13;14.48;;;5.10;;
50056;SDS011;36875;49.468;11.200;2022-12-29T14:52:13;11.20;;;4.85;;
50056;SDS011;36875;49.468;11.200;2022-12-29T14:54:44;13.75;;;4.57;;
50056;SDS011;36875;49.468;11.200;2022-12-29T14:57:19;10.75;;;4.63;;
50056;SDS011;36875;49.468;11.200;2022-12-29T14:59:47;14.38;;;4.50;;
50056;SDS011;36875;49.468;11.200;2022-12-29T15:02:19;12.25;;;5.25;;
50056;SDS011;36875;49.468;11.200;2022-12-29T15:04:47;13.32;;;4.68;;
50056;SDS011;36875;49.468;11.200;2022-12-29T15:07:13;11.13;;;4.78;;
50056;SDS011;36875;49.468;11.200;2022-12-29T15:09:41;16.67;;;4.63;;
50056;SDS011;36875;49.468;11.200;2022-12-29T15:12:15;18.88;;;4.50;;